sensor_id;sensor_type;location;lat;lon;timestamp;pressure;altitude;pressure_sealevel;temperature;humidity
65227;BME280;51805;49.012;12.104;2024-03-22T00:01:46;98497.38;;;20.78;53.99
65227;BME280;51805;49.012;12.104;2024-03-22T00:04:14;98498.75;;;20.81;54.10
65227;BME280;51805;49.012;12.104;2024-03-22T00:06:44;98507.69;;;20.81;54.11
65227;BME280;51805;49.012;12.104;2024-03-22T00:09:10;98509.56;;;20.81;54.25
65227;BME280;51805;49.012;12.104;2024-03-22T00:11:36;98507.94;;;20.80;54.34
65227;BME280;51805;49.012;12.104;2024-03-22T00:14:02;98497.13;;;20.80;54.05
65227;BME280;51805;49.012;12.104;2024-03-22T00:16:27;98501.47;;;20.81;54.26
65227;BME280;51805;49.012;12.104;2024-03-22T00:18:53;98490.38;;;20.77;54.27
65227;BME280;51805;49.012;12.104;2024-03-22T00:21:18;98474.34;;;20.71;54.29
65227;BME280;51805;49.012;12.104;2024-03-22T00:23:45;98489.50;;;20.72;54.18
65227;BME280;51805;49.012;12.104;2024-03-22T00:26:10;98491.09;;;20.73;54.36
65227;BME280;51805;49.012;12.104;2024-03-22T00:28:35;98488.97;;;20.75;54.18
65227;BME280;51805;49.012;12.104;2024-03-22T00:31:01;98484.66;;;20.74;54.38
65227;BME280;51805;49.012;12.104;2024-03-22T00:33:26;98479.31;;;20.79;54.29
65227;BME280;51805;49.012;12.104;2024-03-22T00:35:51;98462.47;;;20.72;54.44
65227;BME280;51805;49.012;12.104;2024-03-22T00:38:16;98469.81;;;20.76;54.45
65227;BME280;51805;49.012;12.104;2024-03-22T00:40:42;98460.34;;;20.74;54.29
65227;BME280;51805;49.012;12.104;2024-03-22T00:43:07;98468.44;;;20.74;54.36
65227;BME280;51805;49.012;12.104;2024-03-22T00:45:32;98468.19;;;20.75;54.44
65227;BME280;51805;49.012;12.104;2024-03-22T00:47:58;98468.44;;;20.74;54.40
65227;BME280;51805;49.012;12.104;2024-03-22T00:50:23;98463.56;;;20.71;54.56
65227;BME280;51805;49.012;12.104;2024-03-22T00:52:50;98466.25;;;20.71;54.38
65227;BME280;51805;49.012;12.104;2024-03-22T00:55:15;98462.53;;;20.77;54.32
65227;BME280;51805;49.012;12.104;2024-03-22T00:57:40;98451.66;;;20.72;54.45
65227;BME280;51805;49.012;12.104;2024-03-22T01:00:06;98462.53;;;20.77;54.42
65227;BME280;51805;49.012;12.104;2024-03-22T01:02:31;98460.03;;;20.70;54.25
65227;BME280;51805;49.012;12.104;2024-03-22T01:04:57;98459.22;;;20.70;54.53
65227;BME280;51805;49.012;12.104;2024-03-22T01:07:22;98470.00;;;20.70;54.61
65227;BME280;51805;49.012;12.104;2024-03-22T01:09:47;98454.88;;;20.69;54.63
65227;BME280;51805;49.012;12.104;2024-03-22T01:12:13;98456.75;;;20.68;54.60
65227;BME280;51805;49.012;12.104;2024-03-22T01:14:38;98461.41;;;20.73;54.58
65227;BME280;51805;49.012;12.104;2024-03-22T01:17:03;98454.31;;;20.67;54.47
65227;BME280;51805;49.012;12.104;2024-03-22T01:19:29;98464.09;;;20.73;54.49
65227;BME280;51805;49.012;12.104;2024-03-22T01:21:54;98452.69;;;20.66;54.44
65227;BME280;51805;49.012;12.104;2024-03-22T01:24:19;98456.75;;;20.68;54.54
65227;BME280;51805;49.012;12.104;2024-03-22T01:26:44;98453.00;;;20.69;54.53
65227;BME280;51805;49.012;12.104;2024-03-22T01:29:10;98455.47;;;20.71;54.61
65227;BME280;51805;49.012;12.104;2024-03-22T01:31:35;98447.28;;;20.66;54.61
65227;BME280;51805;49.012;12.104;2024-03-22T01:34:00;98459.22;;;20.70;54.56
65227;BME280;51805;49.012;12.104;2024-03-22T01:36:25;98449.75;;;20.67;54.62
65227;BME280;51805;49.012;12.104;2024-03-22T01:38:51;98446.78;;;20.69;54.71
65227;BME280;51805;49.012;12.104;2024-03-22T01:41:16;98453.00;;;20.69;54.71
65227;BME280;51805;49.012;12.104;2024-03-22T01:43:41;98451.66;;;20.72;54.75
65227;BME280;51805;49.012;12.104;2024-03-22T01:46:07;98446.28;;;20.72;54.75
65227;BME280;51805;49.012;12.104;2024-03-22T01:48:32;98449.47;;;20.69;54.81
65227;BME280;51805;49.012;12.104;2024-03-22T01:50:58;98452.25;;;20.74;54.66
65227;BME280;51805;49.012;12.104;2024-03-22T01:53:23;98435.41;;;20.67;54.64
65227;BME280;51805;49.012;12.104;2024-03-22T01:55:48;98445.16;;;20.68;54.82
65227;BME280;51805;49.012;12.104;2024-03-22T01:58:14;98443.50;;;20.67;54.75
65227;BME280;51805;49.012;12.104;2024-03-22T02:00:39;98437.06;;;20.68;54.80
65227;BME280;51805;49.012;12.104;2024-03-22T02:03:04;98430.00;;;20.67;54.87
65227;BME280;51805;49.012;12.104;2024-03-22T02:05:29;98405.31;;;20.53;54.71
65227;BME280;51805;49.012;12.104;2024-03-22T02:07:55;98428.91;;;20.63;54.78
65227;BME280;51805;49.012;12.104;2024-03-22T02:10:20;98421.88;;;20.62;54.79
65227;BME280;51805;49.012;12.104;2024-03-22T02:12:46;98418.09;;;20.63;54.97
65227;BME280;51805;49.012;12.104;2024-03-22T02:15:11;98426.50;;;20.66;54.73
65227;BME280;51805;49.012;12.104;2024-03-22T02:17:37;98420.53;;;20.64;54.73
65227;BME280;51805;49.012;12.104;2024-03-22T02:20:02;98415.97;;;20.65;54.95
65227;BME280;51805;49.012;12.104;2024-03-22T02:22:28;98405.69;;;20.62;54.96
65227;BME280;51805;49.012;12.104;2024-03-22T02:24:53;98410.56;;;20.65;54.95
65227;BME280;51805;49.012;12.104;2024-03-22T02:27:19;98401.31;;;20.61;54.95
65227;BME280;51805;49.012;12.104;2024-03-22T02:29:44;98406.72;;;20.61;54.83
65227;BME280;51805;49.012;12.104;2024-03-22T02:32:09;98398.59;;;20.56;55.11
65227;BME280;51805;49.012;12.104;2024-03-22T02:34:35;98401.91;;;20.63;55.16
65227;BME280;51805;49.012;12.104;2024-03-22T02:37:00;98394.31;;;20.60;54.85
65227;BME280;51805;49.012;12.104;2024-03-22T02:39:25;98405.16;;;20.65;55.14
65227;BME280;51805;49.012;12.104;2024-03-22T02:41:51;98391.09;;;20.63;55.18
65227;BME280;51805;49.012;12.104;2024-03-22T02:44:16;98379.44;;;20.57;55.20
65227;BME280;51805;49.012;12.104;2024-03-22T02:46:41;98387.03;;;20.60;54.86
65227;BME280;51805;49.012;12.104;2024-03-22T02:49:07;98393.47;;;20.59;55.11
65227;BME280;51805;49.012;12.104;2024-03-22T02:51:32;98400.03;;;20.63;55.00
65227;BME280;51805;49.012;12.104;2024-03-22T02:53:57;98403.50;;;20.64;55.10
65227;BME280;51805;49.012;12.104;2024-03-22T02:56:23;98400.03;;;20.63;54.98
65227;BME280;51805;49.012;12.104;2024-03-22T02:58:51;98369.38;;;20.53;54.91
65227;BME280;51805;49.012;12.104;2024-03-22T03:01:16;98387.28;;;20.59;54.77
65227;BME280;51805;49.012;12.104;2024-03-22T03:03:42;98383.25;;;20.61;55.11
65227;BME280;51805;49.012;12.104;2024-03-22T03:06:07;98391.09;;;20.63;54.96
65227;BME280;51805;49.012;12.104;2024-03-22T03:08:32;98385.63;;;20.58;54.97
65227;BME280;51805;49.012;12.104;2024-03-22T03:10:57;98378.88;;;20.55;55.16
65227;BME280;51805;49.012;12.104;2024-03-22T03:13:23;98384.84;;;20.57;55.24
65227;BME280;51805;49.012;12.104;2024-03-22T03:15:48;98383.50;;;20.60;55.20
65227;BME280;51805;49.012;12.104;2024-03-22T03:18:13;98375.41;;;20.60;55.14
65227;BME280;51805;49.012;12.104;2024-03-22T03:20:38;98378.94;;;20.60;55.14
65227;BME280;51805;49.012;12.104;2024-03-22T03:23:04;98368.91;;;20.56;54.97
65227;BME280;51805;49.012;12.104;2024-03-22T03:25:29;98378.09;;;20.60;55.04
65227;BME280;51805;49.012;12.104;2024-03-22T03:27:54;98369.19;;;20.59;55.02
65227;BME280;51805;49.012;12.104;2024-03-22T03:30:20;98350.78;;;20.56;55.10
65227;BME280;51805;49.012;12.104;2024-03-22T03:32:45;98361.06;;;20.59;55.12
65227;BME280;51805;49.012;12.104;2024-03-22T03:35:10;98361.06;;;20.59;55.18
65227;BME280;51805;49.012;12.104;2024-03-22T03:37:35;98365.06;;;20.52;55.03
65227;BME280;51805;49.012;12.104;2024-03-22T03:40:01;98341.22;;;20.44;55.28
65227;BME280;51805;49.012;12.104;2024-03-22T03:42:26;98369.94;;;20.55;55.13
65227;BME280;51805;49.012;12.104;2024-03-22T03:44:51;98376.50;;;20.59;54.94
65227;BME280;51805;49.012;12.104;2024-03-22T03:47:17;98374.03;;;20.57;55.39
65227;BME280;51805;49.012;12.104;2024-03-22T03:49:42;98367.75;;;20.52;55.34
65227;BME280;51805;49.012;12.104;2024-03-22T03:52:09;98368.34;;;20.54;55.08
65227;BME280;51805;49.012;12.104;2024-03-22T03:54:35;98372.41;;;20.56;55.12
65227;BME280;51805;49.012;12.104;2024-03-22T03:57:00;98361.84;;;20.55;55.14
65227;BME280;51805;49.012;12.104;2024-03-22T03:59:25;98357.78;;;20.52;55.21
65227;BME280;51805;49.012;12.104;2024-03-22T04:01:50;98354.25;;;20.52;55.18
65227;BME280;51805;49.012;12.104;2024-03-22T04:04:16;98359.16;;;20.55;55.28
65227;BME280;51805;49.012;12.104;2024-03-22T04:06:43;98350.75;;;20.51;55.26
65227;BME280;51805;49.012;12.104;2024-03-22T04:09:09;98355.88;;;20.53;55.20
65227;BME280;51805;49.012;12.104;2024-03-22T04:11:34;98354.56;;;20.55;55.24
65227;BME280;51805;49.012;12.104;2024-03-22T04:13:59;98337.47;;;20.45;55.33
65227;BME280;51805;49.012;12.104;2024-03-22T04:16:25;98344.28;;;20.52;55.15
65227;BME280;51805;49.012;12.104;2024-03-22T04:18:50;98341.34;;;20.54;55.06
65227;BME280;51805;49.012;12.104;2024-03-22T04:21:15;98347.56;;;20.54;55.02
65227;BME280;51805;49.012;12.104;2024-03-22T04:23:40;98349.94;;;20.51;55.29
65227;BME280;51805;49.012;12.104;2024-03-22T04:26:06;98350.22;;;20.49;55.11
65227;BME280;51805;49.012;12.104;2024-03-22T04:28:31;98350.47;;;20.53;55.26
65227;BME280;51805;49.012;12.104;2024-03-22T04:31:02;98344.28;;;20.52;55.25
65227;BME280;51805;49.012;12.104;2024-03-22T04:33:28;98353.69;;;20.50;55.31
65227;BME280;51805;49.012;12.104;2024-03-22T04:35:57;98355.34;;;20.51;55.24
65227;BME280;51805;49.012;12.104;2024-03-22T04:38:23;98361.28;;;20.53;55.36
65227;BME280;51805;49.012;12.104;2024-03-22T04:40:49;98355.88;;;20.53;55.42
65227;BME280;51805;49.012;12.104;2024-03-22T04:43:15;98360.75;;;20.51;55.18
65227;BME280;51805;49.012;12.104;2024-03-22T04:45:43;98349.38;;;20.49;55.35
65227;BME280;51805;49.012;12.104;2024-03-22T04:48:09;98352.34;;;20.47;55.12
65227;BME280;51805;49.012;12.104;2024-03-22T04:50:35;98357.53;;;20.54;55.25
65227;BME280;51805;49.012;12.104;2024-03-22T04:53:01;98358.84;;;20.51;55.22
65227;BME280;51805;49.012;12.104;2024-03-22T04:55:26;98356.41;;;20.50;55.33
65227;BME280;51805;49.012;12.104;2024-03-22T04:57:52;98357.22;;;20.50;55.31
65227;BME280;51805;49.012;12.104;2024-03-22T05:00:17;98367.19;;;20.50;55.28
65227;BME280;51805;49.012;12.104;2024-03-22T05:02:43;98352.03;;;20.44;55.00
65227;BME280;51805;49.012;12.104;2024-03-22T05:05:08;98346.63;;;20.44;54.95
65227;BME280;51805;49.012;12.104;2024-03-22T05:07:34;98349.63;;;20.47;55.23
65227;BME280;51805;49.012;12.104;2024-03-22T05:09:59;98354.25;;;20.52;55.20
65227;BME280;51805;49.012;12.104;2024-03-22T05:12:24;98348.03;;;20.51;55.21
65227;BME280;51805;49.012;12.104;2024-03-22T05:14:50;98337.47;;;20.45;55.20
65227;BME280;51805;49.012;12.104;2024-03-22T05:17:15;98346.94;;;20.47;55.34
65227;BME280;51805;49.012;12.104;2024-03-22T05:19:40;98339.31;;;20.39;55.35
65227;BME280;51805;49.012;12.104;2024-03-22T05:22:05;98346.94;;;20.47;55.24
65227;BME280;51805;49.012;12.104;2024-03-22T05:24:31;98352.09;;;20.49;55.28
65227;BME280;51805;49.012;12.104;2024-03-22T05:26:56;98355.59;;;20.49;55.31
65227;BME280;51805;49.012;12.104;2024-03-22T05:29:21;98356.41;;;20.50;55.33
65227;BME280;51805;49.012;12.104;2024-03-22T05:31:48;98346.63;;;20.44;55.60
65227;BME280;51805;49.012;12.104;2024-03-22T05:34:14;98337.75;;;20.43;55.27
65227;BME280;51805;49.012;12.104;2024-03-22T05:36:40;98349.13;;;20.50;55.25
65227;BME280;51805;49.012;12.104;2024-03-22T05:39:05;98336.66;;;20.44;55.39
65227;BME280;51805;49.012;12.104;2024-03-22T05:41:30;98336.97;;;20.48;55.16
65227;BME280;51805;49.012;12.104;2024-03-22T05:43:56;98320.72;;;20.43;55.27
65227;BME280;51805;49.012;12.104;2024-03-22T05:46:21;98330.75;;;20.47;55.37
65227;BME280;51805;49.012;12.104;2024-03-22T05:48:46;98326.69;;;20.45;55.26
65227;BME280;51805;49.012;12.104;2024-03-22T05:51:11;98332.34;;;20.48;55.28
65227;BME280;51805;49.012;12.104;2024-03-22T05:53:37;98313.06;;;20.35;55.17
65227;BME280;51805;49.012;12.104;2024-03-22T05:56:02;98337.50;;;20.50;54.95
65227;BME280;51805;49.012;12.104;2024-03-22T05:58:27;98349.91;;;20.46;55.03
65227;BME280;51805;49.012;12.104;2024-03-22T06:00:53;98344.56;;;20.51;54.98
65227;BME280;51805;49.012;12.104;2024-03-22T06:03:18;98348.59;;;20.53;54.98
65227;BME280;51805;49.012;12.104;2024-03-22T06:05:44;98337.47;;;20.45;55.07
65227;BME280;51805;49.012;12.104;2024-03-22T06:08:09;98347.25;;;20.51;55.14
65227;BME280;51805;49.012;12.104;2024-03-22T06:10:34;98338.13;;;20.57;54.67
65227;BME280;51805;49.012;12.104;2024-03-22T06:12:59;98347.88;;;20.63;55.05
65227;BME280;51805;49.012;12.104;2024-03-22T06:15:25;98346.81;;;20.64;54.79
65227;BME280;51805;49.012;12.104;2024-03-22T06:17:50;98331.63;;;20.58;55.04
65227;BME280;51805;49.012;12.104;2024-03-22T06:20:15;98350.13;;;20.71;55.00
65227;BME280;51805;49.012;12.104;2024-03-22T06:22:41;98350.13;;;20.71;54.90
65227;BME280;51805;49.012;12.104;2024-03-22T06:25:06;98349.03;;;20.72;55.07
65227;BME280;51805;49.012;12.104;2024-03-22T06:27:31;98346.59;;;20.70;54.95
65227;BME280;51805;49.012;12.104;2024-03-22T06:29:56;98354.50;;;20.77;54.93
65227;BME280;51805;49.012;12.104;2024-03-22T06:32:22;98345.56;;;20.76;55.03
65227;BME280;51805;49.012;12.104;2024-03-22T06:34:47;98339.84;;;20.73;54.83
65227;BME280;51805;49.012;12.104;2024-03-22T06:37:12;98342.06;;;20.76;54.96
65227;BME280;51805;49.012;12.104;2024-03-22T06:39:37;98332.00;;;20.71;55.01
65227;BME280;51805;49.012;12.104;2024-03-22T06:42:03;98328.00;;;20.74;54.97
65227;BME280;51805;49.012;12.104;2024-03-22T06:44:28;98324.47;;;20.73;54.89
65227;BME280;51805;49.012;12.104;2024-03-22T06:46:54;98320.19;;;20.77;54.73
65227;BME280;51805;49.012;12.104;2024-03-22T06:49:19;98314.50;;;20.74;54.78
65227;BME280;51805;49.012;12.104;2024-03-22T06:51:44;98311.19;;;20.67;55.02
65227;BME280;51805;49.012;12.104;2024-03-22T06:54:09;98309.09;;;20.74;54.96
65227;BME280;51805;49.012;12.104;2024-03-22T06:56:35;98302.56;;;20.70;55.00
65227;BME280;51805;49.012;12.104;2024-03-22T06:59:00;98294.50;;;20.75;54.98
65227;BME280;51805;49.012;12.104;2024-03-22T07:01:25;98283.38;;;20.66;54.80
65227;BME280;51805;49.012;12.104;2024-03-22T07:03:50;98297.78;;;20.77;54.84
65227;BME280;51805;49.012;12.104;2024-03-22T07:06:16;98284.75;;;20.69;54.88
65227;BME280;51805;49.012;12.104;2024-03-22T07:08:41;98312.66;;;20.84;54.80
65227;BME280;51805;49.012;12.104;2024-03-22T07:11:06;98314.28;;;20.85;54.95
65227;BME280;51805;49.012;12.104;2024-03-22T07:13:32;98312.41;;;20.86;54.97
65227;BME280;51805;49.012;12.104;2024-03-22T07:15:58;98311.31;;;20.82;54.83
65227;BME280;51805;49.012;12.104;2024-03-22T07:18:23;98312.94;;;20.83;54.87
65227;BME280;51805;49.012;12.104;2024-03-22T07:20:48;98316.72;;;20.82;54.85
65227;BME280;51805;49.012;12.104;2024-03-22T07:23:13;98319.94;;;20.84;54.81
65227;BME280;51805;49.012;12.104;2024-03-22T07:25:39;98300.47;;;20.77;54.79
65227;BME280;51805;49.012;12.104;2024-03-22T07:28:04;98304.25;;;20.81;54.98
65227;BME280;51805;49.012;12.104;2024-03-22T07:30:30;98304.25;;;20.81;54.83
65227;BME280;51805;49.012;12.104;2024-03-22T07:32:55;98312.97;;;20.88;54.92
65227;BME280;51805;49.012;12.104;2024-03-22T07:35:20;98318.66;;;20.91;54.84
65227;BME280;51805;49.012;12.104;2024-03-22T07:37:45;98308.63;;;20.87;54.77
65227;BME280;51805;49.012;12.104;2024-03-22T07:40:11;98302.69;;;20.90;54.71
65227;BME280;51805;49.012;12.104;2024-03-22T07:42:36;98300.53;;;20.87;54.79
65227;BME280;51805;49.012;12.104;2024-03-22T07:45:01;98295.94;;;20.87;54.95
65227;BME280;51805;49.012;12.104;2024-03-22T07:47:27;98304.34;;;20.91;54.88
65227;BME280;51805;49.012;12.104;2024-03-22T07:49:53;98303.53;;;20.90;54.75
65227;BME280;51805;49.012;12.104;2024-03-22T07:52:19;98300.53;;;20.87;54.85
65227;BME280;51805;49.012;12.104;2024-03-22T07:54:44;98304.34;;;20.91;54.90
65227;BME280;51805;49.012;12.104;2024-03-22T07:57:09;98306.50;;;20.89;54.73
65227;BME280;51805;49.012;12.104;2024-03-22T07:59:34;98311.94;;;20.94;54.67
65227;BME280;51805;49.012;12.104;2024-03-22T08:02:01;98310.28;;;20.93;54.76
65227;BME280;51805;49.012;12.104;2024-03-22T08:04:27;98310.84;;;20.95;54.85
65227;BME280;51805;49.012;12.104;2024-03-22T08:06:52;98298.75;;;20.97;54.73
65227;BME280;51805;49.012;12.104;2024-03-22T08:09:17;98289.50;;;20.93;54.80
65227;BME280;51805;49.012;12.104;2024-03-22T08:11:43;98290.91;;;20.96;54.61
65227;BME280;51805;49.012;12.104;2024-03-22T08:14:08;98296.31;;;20.96;54.70
65227;BME280;51805;49.012;12.104;2024-03-22T08:16:34;98296.84;;;20.98;54.62
65227;BME280;51805;49.012;12.104;2024-03-22T08:18:59;98277.94;;;20.98;54.66
65227;BME280;51805;49.012;12.104;2024-03-22T08:21:24;98273.03;;;20.95;54.50
65227;BME280;51805;49.012;12.104;2024-03-22T08:23:51;98296.88;;;21.03;54.64
65227;BME280;51805;49.012;12.104;2024-03-22T08:26:18;98287.97;;;21.02;54.48
65227;BME280;51805;49.012;12.104;2024-03-22T08:28:46;98284.47;;;21.02;54.53
65227;BME280;51805;49.012;12.104;2024-03-22T08:31:12;98283.38;;;21.03;54.67
65227;BME280;51805;49.012;12.104;2024-03-22T08:33:38;98278.22;;;21.01;54.55
65227;BME280;51805;49.012;12.104;2024-03-22T08:36:03;98280.38;;;20.99;54.55
65227;BME280;51805;49.012;12.104;2024-03-22T08:38:28;98275.78;;;21.00;54.64
65227;BME280;51805;49.012;12.104;2024-03-22T08:40:54;98278.28;;;21.06;54.73
65227;BME280;51805;49.012;12.104;2024-03-22T08:43:19;98277.72;;;21.04;54.71
65227;BME280;51805;49.012;12.104;2024-03-22T08:45:44;98273.66;;;21.02;54.63
65227;BME280;51805;49.012;12.104;2024-03-22T08:48:09;98268.50;;;21.05;54.75
65227;BME280;51805;49.012;12.104;2024-03-22T08:50:35;98273.13;;;21.10;54.63
65227;BME280;51805;49.012;12.104;2024-03-22T08:53:00;98277.47;;;21.11;54.65
65227;BME280;51805;49.012;12.104;2024-03-22T08:55:25;98268.00;;;21.03;54.64
65227;BME280;51805;49.012;12.104;2024-03-22T08:57:51;98264.19;;;21.04;54.62
65227;BME280;51805;49.012;12.104;2024-03-22T09:00:17;98254.75;;;21.02;54.60
65227;BME280;51805;49.012;12.104;2024-03-22T09:02:42;98263.63;;;21.02;54.66
65227;BME280;51805;49.012;12.104;2024-03-22T09:05:07;98260.41;;;21.05;54.55
65227;BME280;51805;49.012;12.104;2024-03-22T09:07:33;98258.53;;;21.06;54.66
65227;BME280;51805;49.012;12.104;2024-03-22T09:09:58;98265.03;;;21.10;54.77
65227;BME280;51805;49.012;12.104;2024-03-22T09:12:23;98258.00;;;21.09;54.73
65227;BME280;51805;49.012;12.104;2024-03-22T09:14:48;98248.81;;;21.10;54.53
65227;BME280;51805;49.012;12.104;2024-03-22T09:17:14;98252.91;;;21.12;54.69
65227;BME280;51805;49.012;12.104;2024-03-22T09:19:39;98245.06;;;21.11;54.81
65227;BME280;51805;49.012;12.104;2024-03-22T09:22:05;98249.41;;;21.17;54.63
65227;BME280;51805;49.012;12.104;2024-03-22T09:24:31;98237.47;;;21.13;54.66
65227;BME280;51805;49.012;12.104;2024-03-22T09:26:56;98242.13;;;21.17;54.53
65227;BME280;51805;49.012;12.104;2024-03-22T09:29:21;98235.91;;;21.22;54.65
65227;BME280;51805;49.012;12.104;2024-03-22T09:31:46;98239.69;;;21.21;54.72
65227;BME280;51805;49.012;12.104;2024-03-22T09:34:12;98232.09;;;21.18;54.62
65227;BME280;51805;49.012;12.104;2024-03-22T09:36:37;98226.72;;;21.23;54.32
65227;BME280;51805;49.012;12.104;2024-03-22T09:39:03;98225.09;;;21.22;54.56
65227;BME280;51805;49.012;12.104;2024-03-22T09:41:31;98227.81;;;21.27;54.79
65227;BME280;51805;49.012;12.104;2024-03-22T09:43:58;98226.75;;;21.28;54.43
65227;BME280;51805;49.012;12.104;2024-03-22T09:46:23;98225.09;;;21.27;54.38
65227;BME280;51805;49.012;12.104;2024-03-22T09:48:49;98226.19;;;21.26;54.25
65227;BME280;51805;49.012;12.104;2024-03-22T09:51:16;98226.75;;;21.28;54.32
65227;BME280;51805;49.012;12.104;2024-03-22T09:53:52;98223.75;;;21.24;54.48
65227;BME280;51805;49.012;12.104;2024-03-22T09:56:21;98221.09;;;21.29;54.61
65227;BME280;51805;49.012;12.104;2024-03-22T09:58:46;98215.13;;;21.32;54.50
65227;BME280;51805;49.012;12.104;2024-03-22T10:01:12;98218.09;;;21.31;54.25
65227;BME280;51805;49.012;12.104;2024-03-22T10:03:37;98220.25;;;21.29;54.28
65227;BME280;51805;49.012;12.104;2024-03-22T10:06:03;98198.06;;;21.22;54.25
65227;BME280;51805;49.012;12.104;2024-03-22T10:08:29;98214.88;;;21.34;54.58
65227;BME280;51805;49.012;12.104;2024-03-22T10:10:55;98215.94;;;21.33;54.46
65227;BME280;51805;49.012;12.104;2024-03-22T10:13:20;98200.81;;;21.32;54.42
65227;BME280;51805;49.012;12.104;2024-03-22T10:15:46;98198.63;;;21.29;54.37
65227;BME280;51805;49.012;12.104;2024-03-22T10:18:11;98196.19;;;21.27;54.14
65227;BME280;51805;49.012;12.104;2024-03-22T10:20:37;98195.66;;;21.30;54.41
65227;BME280;51805;49.012;12.104;2024-03-22T10:23:02;98199.19;;;21.36;54.32
65227;BME280;51805;49.012;12.104;2024-03-22T10:25:28;98197.03;;;21.38;54.21
65227;BME280;51805;49.012;12.104;2024-03-22T10:27:54;98192.97;;;21.35;54.22
65227;BME280;51805;49.012;12.104;2024-03-22T10:30:21;98186.19;;;21.33;54.05
65227;BME280;51805;49.012;12.104;2024-03-22T10:32:50;98180.25;;;21.36;53.98
65227;BME280;51805;49.012;12.104;2024-03-22T10:35:16;98174.06;;;21.35;54.25
65227;BME280;51805;49.012;12.104;2024-03-22T10:37:41;98171.34;;;21.35;54.39
65227;BME280;51805;49.012;12.104;2024-03-22T10:40:07;98163.50;;;21.29;54.39
65227;BME280;51805;49.012;12.104;2024-03-22T10:42:32;98162.97;;;21.37;54.20
65227;BME280;51805;49.012;12.104;2024-03-22T10:44:58;98157.56;;;21.37;54.06
65227;BME280;51805;49.012;12.104;2024-03-22T10:47:27;98158.09;;;21.34;54.11
65227;BME280;51805;49.012;12.104;2024-03-22T10:50:03;98154.59;;;21.38;53.87
65227;BME280;51805;49.012;12.104;2024-03-22T10:52:30;98147.81;;;21.36;53.96
65227;BME280;51805;49.012;12.104;2024-03-22T10:54:58;98135.38;;;21.35;54.21
65227;BME280;51805;49.012;12.104;2024-03-22T10:57:23;98137.56;;;21.38;54.12
65227;BME280;51805;49.012;12.104;2024-03-22T10:59:54;98133.25;;;21.37;53.96
65227;BME280;51805;49.012;12.104;2024-03-22T11:02:23;98138.09;;;21.40;53.91
65227;BME280;51805;49.012;12.104;2024-03-22T11:04:58;98124.84;;;21.38;54.24
65227;BME280;51805;49.012;12.104;2024-03-22T11:07:23;98120.78;;;21.36;54.06
65227;BME280;51805;49.012;12.104;2024-03-22T11:09:56;98122.69;;;21.35;54.09
65227;BME280;51805;49.012;12.104;2024-03-22T11:12:26;98112.66;;;21.36;54.09
65227;BME280;51805;49.012;12.104;2024-03-22T11:14:52;98087.00;;;21.23;54.32
65227;BME280;51805;49.012;12.104;2024-03-22T11:17:18;98099.41;;;21.34;53.75
65227;BME280;51805;49.012;12.104;2024-03-22T11:19:43;98100.78;;;21.32;54.00
65227;BME280;51805;49.012;12.104;2024-03-22T11:22:09;98094.28;;;21.28;54.15
65227;BME280;51805;49.012;12.104;2024-03-22T11:24:37;98104.81;;;21.34;54.12
65227;BME280;51805;49.012;12.104;2024-03-22T11:27:02;98090.22;;;21.30;53.88
65227;BME280;51805;49.012;12.104;2024-03-22T11:29:28;98089.16;;;21.31;54.02
65227;BME280;51805;49.012;12.104;2024-03-22T11:31:53;98083.75;;;21.31;53.88
65227;BME280;51805;49.012;12.104;2024-03-22T11:34:18;98079.69;;;21.29;54.07
65227;BME280;51805;49.012;12.104;2024-03-22T11:36:43;98071.56;;;21.24;54.02
65227;BME280;51805;49.012;12.104;2024-03-22T11:39:09;98074.28;;;21.29;53.98
65227;BME280;51805;49.012;12.104;2024-03-22T11:41:34;98066.19;;;21.29;53.92
65227;BME280;51805;49.012;12.104;2024-03-22T11:44:00;98068.34;;;21.32;53.74
65227;BME280;51805;49.012;12.104;2024-03-22T11:46:26;98069.41;;;21.36;53.99
65227;BME280;51805;49.012;12.104;2024-03-22T11:48:53;98056.44;;;21.38;53.84
65227;BME280;51805;49.012;12.104;2024-03-22T11:51:19;98058.88;;;21.39;53.78
65227;BME280;51805;49.012;12.104;2024-03-22T11:53:51;98045.38;;;21.39;53.84
65227;BME280;51805;49.012;12.104;2024-03-22T11:56:20;98045.09;;;21.41;54.00
65227;BME280;51805;49.012;12.104;2024-03-22T11:58:46;98042.38;;;21.41;53.85
65227;BME280;51805;49.012;12.104;2024-03-22T12:01:12;98026.44;;;21.34;53.91
65227;BME280;51805;49.012;12.104;2024-03-22T12:03:38;98034.28;;;21.41;54.04
65227;BME280;51805;49.012;12.104;2024-03-22T12:06:03;98024.28;;;21.41;53.94
65227;BME280;51805;49.012;12.104;2024-03-22T12:08:29;98020.50;;;21.42;53.78
65227;BME280;51805;49.012;12.104;2024-03-22T12:10:54;98019.16;;;21.45;53.76
65227;BME280;51805;49.012;12.104;2024-03-22T12:13:19;98011.56;;;21.47;53.94
65227;BME280;51805;49.012;12.104;2024-03-22T12:15:44;98014.81;;;21.49;53.65
65227;BME280;51805;49.012;12.104;2024-03-22T12:18:10;97991.56;;;21.48;53.72
65227;BME280;51805;49.012;12.104;2024-03-22T12:20:35;97996.44;;;21.51;53.67
65227;BME280;51805;49.012;12.104;2024-03-22T12:23:00;97984.25;;;21.48;53.73
65227;BME280;51805;49.012;12.104;2024-03-22T12:25:26;97974.53;;;21.48;53.76
65227;BME280;51805;49.012;12.104;2024-03-22T12:27:51;97972.38;;;21.50;53.85
65227;BME280;51805;49.012;12.104;2024-03-22T12:30:16;97967.22;;;21.53;53.59
65227;BME280;51805;49.012;12.104;2024-03-22T12:32:41;97948.31;;;21.48;53.75
65227;BME280;51805;49.012;12.104;2024-03-22T12:35:07;97965.06;;;21.55;53.68
65227;BME280;51805;49.012;12.104;2024-03-22T12:37:32;97954.50;;;21.54;53.67
65227;BME280;51805;49.012;12.104;2024-03-22T12:39:58;97940.72;;;21.50;53.84
65227;BME280;51805;49.012;12.104;2024-03-22T12:42:23;97943.97;;;21.52;53.63